Latest Weather Observations for Mount Lofty

IDS60801

Issued at 2:35 pm CST Friday 29 August 2014 (issued every 30 minutes, with the page automatically refreshed every 10 minutes)

About weather observations | Map of weather stations | Latest weather observations for SA | Other Formats
Station Details ID: 023842 Name: MOUNT LOFTY Lat: -34.98 Lon: 138.71 Height: 685.0 m
Data from the previous 72 hours. | See also: Recent months at Mount Lofty
Date/Time
CST
Temp
°C
App
Temp
°C
Dew
Point
Rel
Hum
%
Delta-T
°C
Wind Press
QNH
hPa
Press
MSL
hPa
Rain
since 9 am
mm
Dir
 
Spd
km/h
Gust
km/h
Spd
kts
Gust
kts
29/02:30pm 18.7 16.8 6.9 46 6.1 WNW 6 11 3 6 - - 0.0
29/02:00pm 18.6 16.6 6.1 44 6.4 W 6 11 3 6 - - 0.0
29/01:30pm 18.7 16.4 4.8 40 6.9 NW 6 15 3 8 - - 0.0
29/01:00pm 18.4 16.3 3.8 38 7.1 N 4 9 2 5 - - 0.0
29/12:30pm 17.9 15.3 4.1 40 6.8 NNW 7 13 4 7 - - 0.0
29/12:00pm 17.9 15.4 4.5 41 6.6 WNW 7 13 4 7 - - 0.0
29/11:30am 17.6 15.0 4.2 41 6.6 WNW 7 13 4 7 - - 0.0
29/11:00am 17.4 14.8 4.0 41 6.5 WNW 7 13 4 7 - - 0.0
29/10:30am 17.1 14.0 3.8 41 6.4 NW 9 13 5 7 - - 0.0
29/10:00am 16.9 13.8 3.6 41 6.4 NW 9 15 5 8 - - 0.0
29/09:30am 16.7 14.1 4.1 43 6.1 NW 7 13 4 7 - - 0.0
29/09:00am 16.2 13.2 2.2 39 6.5 N 7 11 4 6 - - 0.0
29/08:30am 15.8 12.9 2.6 41 6.2 N 7 11 4 6 - - 0.0
29/08:00am 15.4 12.4 2.2 41 6.1 N 7 11 4 6 - - 0.0
29/07:30am 14.8 11.7 1.3 40 6.1 N 7 11 4 6 - - 0.0
29/07:00am 14.0 11.0 2.0 44 5.5 NNE 7 11 4 6 - - 0.0
29/06:30am 13.2 10.4 3.0 50 4.7 NE 7 9 4 5 - - 0.0
29/06:00am 12.4 10.3 2.0 49 4.7 ENE 2 4 1 2 - - 0.0
29/05:30am 13.2 10.7 1.5 45 5.2 ENE 4 4 2 2 - - 0.0
29/05:00am 13.7 11.2 1.7 44 5.4 N 4 7 2 4 - - 0.0
29/04:30am 14.4 11.0 1.7 42 5.8 NNW 9 11 5 6 - - 0.0
29/04:00am 14.7 11.3 1.9 42 5.8 NNW 9 13 5 7 - - 0.0
29/03:30am 14.8 11.4 2.0 42 5.9 NNW 9 13 5 7 - - 0.0
29/03:00am 14.9 11.9 2.1 42 5.9 N 7 11 4 6 - - 0.0
29/02:30am 14.6 11.6 2.2 43 5.7 N 7 11 4 6 - - 0.0
29/02:00am 14.9 12.0 2.8 44 5.6 N 7 11 4 6 - - 0.0
29/01:30am 14.6 11.5 3.4 47 5.3 NNE 9 13 5 7 - - 0.0
29/01:00am 13.0 10.8 5.2 59 3.8 NE 6 9 3 5 - - 0.0
29/12:30am 11.5 10.0 6.8 73 2.3 E 4 7 2 4 - - 0.0
29/12:00am 11.0 8.8 6.4 73 2.2 ESE 7 9 4 5 - - 0.0
 
Date/Time
CST
Temp
°C
App
Temp
°C
Dew
Point
Rel
Hum
%
Delta-T
°C
Wind Press
QNH
hPa
Press
MSL
hPa
Rain
since 9 am
mm
Dir
 
Spd
km/h
Gust
km/h
Spd
kts
Gust
kts
28/11:30pm 10.7 8.7 6.3 74 2.1 ESE 6 11 3 6 - - 0.0
28/11:00pm 11.2 9.3 6.5 73 2.3 ESE 6 7 3 4 - - 0.0
28/10:30pm 12.0 10.1 6.7 70 2.6 ESE 6 9 3 5 - - 0.0
28/10:00pm 12.4 10.6 7.1 70 2.7 ESE 6 7 3 4 - - 0.0
28/09:30pm 12.3 10.4 6.6 68 2.8 ESE 6 7 3 4 - - 0.0
28/09:00pm 12.7 10.8 6.5 66 3.1 E 6 9 3 5 - - 0.0
28/08:30pm 12.7 11.9 6.7 67 3.0 CALM 0 2 0 1 - - 0.0
28/08:00pm 12.9 11.0 6.5 65 3.2 ESE 6 7 3 4 - - 0.0
28/07:30pm 13.7 12.5 6.6 62 3.6 E 2 4 1 2 - - 0.0
28/07:00pm 14.7 12.8 6.5 58 4.1 N 6 7 3 4 - - 0.0
28/06:30pm 14.5 13.0 6.6 59 4.0 N 4 7 2 4 - - 0.0
28/06:00pm 13.6 12.7 6.2 61 3.7 SW 0 0 0 0 - - 0.0
28/05:30pm 15.1 14.4 6.9 58 4.2 CALM 0 0 0 0 - - 0.0
28/05:00pm 16.0 14.1 6.7 54 4.7 W 6 7 3 4 - - 0.0
28/04:30pm 16.5 14.6 6.9 53 4.9 W 6 9 3 5 - - 0.0
28/04:00pm 16.9 15.1 7.0 52 5.1 W 6 9 3 5 - - 0.0
28/03:30pm 17.7 16.0 7.7 52 5.2 WNW 6 9 3 5 - - 0.0
28/03:00pm 17.5 15.5 7.3 51 5.3 NW 7 15 4 8 - - 0.0
28/02:30pm 17.6 16.0 8.2 54 5.0 WNW 6 9 3 5 - - 0.0
28/02:00pm 17.5 15.5 7.3 51 5.3 NW 7 13 4 7 - - 0.0
28/01:30pm 17.6 15.6 6.2 47 5.8 NNW 6 13 3 7 - - 0.0
28/01:00pm 18.1 16.4 7.5 50 5.6 NW 6 9 3 5 - - 0.0
28/12:30pm 17.6 15.8 7.1 50 5.4 NW 6 9 3 5 - - 0.0
28/12:00pm 16.7 15.0 5.9 49 5.4 NW 4 9 2 5 - - 0.0
28/11:30am 16.4 14.3 6.0 50 5.2 NNW 6 13 3 7 - - 0.0
28/11:00am 16.1 14.1 6.3 52 5.0 NNW 6 11 3 6 - - 0.0
28/10:30am 15.5 13.2 5.7 52 4.9 NW 7 11 4 6 - - 0.0
28/10:00am 15.5 13.4 6.0 53 4.8 NNW 6 11 3 6 - - 0.0
28/09:30am 15.0 12.8 6.3 56 4.4 N 7 11 4 6 - - 0.0
28/09:00am 14.2 11.8 5.3 55 4.3 NNW 7 13 4 7 - - 0.0
28/08:30am 13.7 10.9 5.1 56 4.2 NNW 9 13 5 7 - - 0.0
28/08:00am 13.1 9.8 4.8 57 4.0 NNW 11 15 6 8 - - 0.0
28/07:30am 12.6 9.3 4.3 57 3.9 NNW 11 15 6 8 - - 0.0
28/07:00am 12.7 9.4 4.4 57 3.9 NNW 11 17 6 9 - - 0.0
28/06:30am 12.7 9.3 4.2 56 4.0 NNW 11 17 6 9 - - 0.0
28/06:00am 12.3 9.7 4.0 57 3.9 N 7 11 4 6 - - 0.0
28/05:30am 12.6 10.0 4.1 56 4.0 N 7 15 4 8 - - 0.0
28/05:00am 12.5 9.9 4.0 56 4.0 N 7 15 4 8 - - 0.0
28/04:30am 12.4 10.0 4.4 58 3.8 NNE 6 9 3 5 - - 0.0
28/04:00am 11.9 9.6 4.6 61 3.5 NE 6 9 3 5 - - 0.0
28/03:30am 11.6 9.3 5.0 64 3.1 NE 6 9 3 5 - - 0.0
28/03:00am 11.4 9.6 5.3 66 2.9 NE 4 7 2 4 - - 0.0
28/02:30am 11.1 9.1 4.6 64 3.1 NE 4 6 2 3 - - 0.0
28/02:00am 11.1 9.2 5.0 66 2.9 ENE 4 6 2 3 - - 0.0
28/01:30am 10.6 8.8 5.4 70 2.5 E 4 4 2 2 - - 0.0
28/01:00am 10.3 8.9 5.3 71 2.4 E 2 6 1 3 - - 0.0
28/12:30am 10.3 8.5 5.5 72 2.3 E 4 6 2 3 - - 0.0
28/12:00am 10.5 8.3 5.5 71 2.4 ESE 6 7 3 4 - - 0.0
 
Date/Time
CST
Temp
°C
App
Temp
°C
Dew
Point
Rel
Hum
%
Delta-T
°C
Wind Press
QNH
hPa
Press
MSL
hPa
Rain
since 9 am
mm
Dir
 
Spd
km/h
Gust
km/h
Spd
kts
Gust
kts
27/11:30pm 10.0 8.1 5.0 71 2.3 ESE 4 7 2 4 - - 0.0
27/11:00pm 10.5 8.2 4.9 68 2.6 ESE 6 9 3 5 - - 0.0
27/10:30pm 10.7 8.8 5.0 68 2.7 ESE 4 7 2 4 - - 0.0
27/10:00pm 10.5 9.1 5.7 72 2.3 ESE 2 6 1 3 - - 0.0
27/09:30pm 11.0 9.5 4.9 66 2.9 E 2 6 1 3 - - 0.0
27/09:00pm 11.9 10.2 4.2 59 3.6 ENE 2 7 1 4 - - 0.0
27/08:30pm 11.3 10.3 5.4 67 2.8 CALM 0 2 0 1 - - 0.0
27/08:00pm 11.0 9.8 6.4 73 2.2 ESE 2 6 1 3 - - 0.0
27/07:30pm 10.7 9.5 6.3 74 2.1 ESE 2 4 1 2 - - 0.0
27/07:00pm 11.1 9.4 6.0 71 2.5 ESE 4 7 2 4 - - 0.0
27/06:30pm 11.4 10.5 5.9 69 2.7 CALM 0 0 0 0 - - 0.0
27/06:00pm 12.4 11.4 5.8 64 3.2 CALM 0 0 0 0 - - 0.0
27/05:30pm 13.7 12.9 6.3 61 3.7 CALM 0 0 0 0 - - 0.0
27/05:00pm 14.9 13.5 5.4 53 4.7 WSW 2 6 1 3 - - 0.0
27/04:30pm 15.3 13.6 6.1 54 4.6 W 4 6 2 3 - - 0.0
27/04:00pm 15.3 13.3 6.3 55 4.5 W 6 9 3 5 - - 0.0
27/03:30pm 15.7 13.7 7.0 56 4.4 W 7 11 4 6 - - 0.0
27/03:00pm 16.2 14.9 7.7 57 4.4 NNW 4 7 2 4 - - 0.0
27/02:30pm 16.4 15.4 5.7 49 5.4 CALM 0 4 0 2 - - 0.0
27/02:00pm 16.7 14.5 5.3 47 5.7 NNE 6 11 3 6 - - 0.0
27/01:30pm 16.6 14.6 4.6 45 5.9 ENE 4 7 2 4 - - 0.0
27/01:00pm 15.9 14.4 6.6 54 4.7 W 4 7 2 4 - - 0.0
27/12:30pm 15.3 13.8 5.2 51 5.0 SSW 2 6 1 3 - - 0.0
27/12:00pm 14.9 12.7 5.1 52 4.8 N 6 11 3 6 - - 0.0
27/11:30am 14.6 12.1 4.0 49 5.1 NW 6 13 3 7 - - 0.0
27/11:00am 14.2 11.4 3.4 48 5.1 NW 7 9 4 5 - - 0.0
27/10:30am 14.0 11.4 3.2 48 5.0 NNW 6 9 3 5 - - 0.0
27/10:00am 14.1 11.4 3.8 50 4.9 NNE 7 17 4 9 - - 0.0
27/09:30am 13.5 10.9 4.4 54 4.3 NE 7 13 4 7 - - 0.0
27/09:00am 13.1 10.8 4.8 57 4.0 NE 6 15 3 8 - - 0.0
27/08:30am 12.5 10.1 4.2 57 3.9 NE 6 11 3 6 - - 0.0
27/08:00am 11.3 8.7 3.3 58 3.7 NE 6 11 3 6 - - 0.0
27/07:30am 9.8 7.2 3.3 64 2.9 ESE 6 19 3 10 - - 0.0
27/07:00am 9.6 6.8 3.1 64 2.9 E 7 13 4 7 - - 0.0
27/06:30am 9.7 7.1 3.0 63 3.0 E 6 9 3 5 - - 0.0
27/06:00am 9.7 7.1 3.0 63 3.0 NE 6 11 3 6 - - 0.0
27/05:30am 10.1 7.4 2.7 60 3.3 NE 6 11 3 6 - - 0.0
27/05:00am 9.8 7.2 3.1 63 3.0 ENE 6 9 3 5 - - 0.0
27/04:30am 9.8 7.2 3.3 64 2.9 E 6 9 3 5 - - 0.0
27/04:00am 8.9 6.4 3.7 70 2.4 E 6 11 3 6 - - 0.0
27/03:30am 9.2 7.1 3.8 69 2.5 E 4 7 2 4 - - 0.0
27/03:00am 9.2 6.7 3.8 69 2.5 E 6 11 3 6 - - 0.0
27/02:30am 9.2 6.7 4.0 70 2.4 E 6 13 3 7 - - 0.0
27/02:00am 9.5 7.0 3.9 68 2.6 E 6 11 3 6 - - 0.0
27/01:30am 9.8 7.3 3.8 66 2.7 E 6 13 3 7 - - 0.0
27/01:00am 9.9 7.5 4.1 67 2.7 ENE 6 11 3 6 - - 0.0
27/12:30am 9.3 7.2 3.9 69 2.5 E 4 11 2 6 - - 0.0
27/12:00am 9.0 6.6 4.2 72 2.2 E 6 11 3 6 - - 0.0
 
Date/Time
CST
Temp
°C
App
Temp
°C
Dew
Point
Rel
Hum
%
Delta-T
°C
Wind Press
QNH
hPa
Press
MSL
hPa
Rain
since 9 am
mm
Dir
 
Spd
km/h
Gust
km/h
Spd
kts
Gust
kts
26/11:30pm 9.0 6.6 4.2 72 2.2 E 6 11 3 6 - - 0.0
26/11:00pm 9.1 6.7 4.3 72 2.2 E 6 9 3 5 - - 0.0
26/10:30pm 9.2 7.2 4.4 72 2.2 E 4 7 2 4 - - 0.0
26/10:00pm 8.8 6.4 4.4 74 2.0 E 6 9 3 5 - - 0.0
26/09:30pm 9.0 7.4 4.4 73 2.1 ENE 2 6 1 3 - - 0.0
26/09:00pm 8.9 7.0 4.9 76 1.9 E 4 6 2 3 - - 0.0
26/08:30pm 9.3 7.4 5.1 75 2.0 ENE 4 9 2 5 - - 0.0
26/08:00pm 9.2 8.0 6.3 82 1.4 ENE 2 6 1 3 - - 0.0
26/07:30pm 9.0 8.1 7.8 92 0.6 E 2 7 1 4 - - 0.0
26/07:00pm 8.8 8.0 8.2 96 0.3 ESE 2 4 1 2 - - 0.0
26/06:30pm 9.5 8.1 8.7 95 0.4 ESE 6 9 3 5 - - 0.0
26/06:00pm 10.1 9.4 8.7 91 0.7 E 2 4 1 2 - - 0.0
26/05:30pm 11.4 10.7 8.6 83 1.4 ESE 2 4 1 2 - - 0.0
26/05:00pm 12.9 12.6 8.6 75 2.2 CALM 0 0 0 0 - - 0.0
26/04:30pm 13.7 12.7 8.7 72 2.6 WSW 4 6 2 3 - - 0.0
26/04:00pm 14.6 13.5 8.5 67 3.2 W 4 7 2 4 - - 0.0
26/03:30pm 14.4 12.7 7.7 64 3.4 WNW 6 11 3 6 - - 0.0
26/03:00pm 14.5 13.5 7.3 62 3.7 NE 2 7 1 4 - - 0.0

Other Formats:

Comma delimited format used in spreadsheet applications
http://www.bom.gov.au/fwo/IDS60801/IDS60801.95678.axf

JavaScript Object Notation format (JSON) in row-major order
http://www.bom.gov.au/fwo/IDS60801/IDS60801.95678.json